Alta Sierra, California
Current Conditions -  °F | °C
As of 2:00 PM on Monday 20 Oct 2014 (Local Time) from KGOO Reporting Station
Broken Clouds Broken Clouds  
Wind Chill: 63°   Ceiling: 6500
Heat Index: 63°   Visibility: 10mi
Dew Point: 48°   Wind: 7mph
Humidity: 59%   Direction: 190°S
Pressure: 29.98"   Gusts: NA
Location:  39.2183°N, 120.924°W
Report Text: KGOO 202100Z AUTO 19006KT 10SM FEW032 FEW047 BKN065 17/09 A2998 RMK AO1
Loading
Personal Weather Stations






























Interactive Weather Map
Tropical Storm Tracking
New forecast layout! Learn more

10-Day Weather Forecast

Advertisements
Track Severe Weather on mobile